Página principal
METAR-TAF:

METAR-TAF

Aeroportos :

Aeroporto Internacional Hato

Curaçao, Antilhas Neerlandesas

latitude: 12-12N, longitude: 068-58W, altura: 9 m

Observação actual do tempo

O boletim foi feito há 19 minutos, às 08:57 UTC
Vento 9 kt de es-sudeste
Temperatura 26°C
Humidade 84%
Pressão 1014 hPa
Visibilidade 10 km ou mais
Nuvens fragmentadasa uma altura de 1600 ft

METAR: TNCC 180857Z 12009KT 9999 BKN016 26/23 Q1014 NOSIG

Hora: 05:16 (09:16 UTC)

Previsão

O boletim foi feito há 11 horas e 16 minutos, às 22:00 UTC
Previsão válida de 18 às 00 UTC a 18 às 24 UTC
Vento 16 kt de este
Visibilidade 10 km ou mais
Nuvens dispersasa uma altura de 2000 ft
Probabilidade 30% :
Temporariamente
de 18 às 06 UTC a 18 às 14 UTC
Nuvens fragmentadasa uma altura de 1500 ft

TAF: TNCC 172200Z 1800/1824 10016KT 9999 SCT020 PROB30 TEMPO 1806/1814 BKN015

Observações e previsões do tempo de mais de 4000 aeroportos (mensagens METAR e TAF).

As estações disponíveis são os pontos amarelos e vermelhos sobre o mapa.

Mova o rato sobre o mapa para ver o nome da estação.

Depois clique no ponto para visualizar as observações e previsões meteorológicas.

Para alterar o mapa : clique nos botões verdes com uma cruz preta para aumentar o zoom; no botão verde com uma pitada de zoom; ou nas setas verdes para mapas adjacentes.


METAR-TAF: